sensor_id;sensor_type;location;lat;lon;timestamp;P1;durP1;ratioP1;P2;durP2;ratioP2
13345;SDS011;6742;48.036;15.780;2024-03-02T00:01:34;25.13;;;20.65;;
13345;SDS011;6742;48.036;15.780;2024-03-02T00:04:02;28.05;;;21.95;;
13345;SDS011;6742;48.036;15.780;2024-03-02T00:06:33;29.23;;;21.75;;
13345;SDS011;6742;48.036;15.780;2024-03-02T00:09:00;25.20;;;20.40;;
13345;SDS011;6742;48.036;15.780;2024-03-02T00:11:28;24.55;;;20.15;;
13345;SDS011;6742;48.036;15.780;2024-03-02T00:13:54;26.33;;;20.20;;
13345;SDS011;6742;48.036;15.780;2024-03-02T00:16:21;23.85;;;18.88;;
13345;SDS011;6742;48.036;15.780;2024-03-02T00:18:49;22.43;;;18.47;;
13345;SDS011;6742;48.036;15.780;2024-03-02T00:21:16;22.85;;;18.05;;
13345;SDS011;6742;48.036;15.780;2024-03-02T00:23:47;23.60;;;18.27;;
13345;SDS011;6742;48.036;15.780;2024-03-02T00:26:17;23.87;;;18.77;;
13345;SDS011;6742;48.036;15.780;2024-03-02T00:28:44;20.98;;;17.63;;
13345;SDS011;6742;48.036;15.780;2024-03-02T00:31:11;23.73;;;19.07;;
13345;SDS011;6742;48.036;15.780;2024-03-02T00:33:40;22.77;;;19.02;;
13345;SDS011;6742;48.036;15.780;2024-03-02T00:36:09;25.77;;;19.10;;
13345;SDS011;6742;48.036;15.780;2024-03-02T00:38:41;23.52;;;19.02;;
13345;SDS011;6742;48.036;15.780;2024-03-02T00:41:15;24.93;;;18.43;;
13345;SDS011;6742;48.036;15.780;2024-03-02T00:43:49;24.13;;;18.67;;
13345;SDS011;6742;48.036;15.780;2024-03-02T00:46:24;22.80;;;18.23;;
13345;SDS011;6742;48.036;15.780;2024-03-02T00:48:55;25.17;;;19.67;;
13345;SDS011;6742;48.036;15.780;2024-03-02T00:51:23;24.43;;;18.33;;
13345;SDS011;6742;48.036;15.780;2024-03-02T00:53:52;22.23;;;17.57;;
13345;SDS011;6742;48.036;15.780;2024-03-02T00:56:23;21.05;;;16.75;;
13345;SDS011;6742;48.036;15.780;2024-03-02T00:58:51;20.80;;;16.38;;
13345;SDS011;6742;48.036;15.780;2024-03-02T01:01:19;21.30;;;16.90;;
13345;SDS011;6742;48.036;15.780;2024-03-02T01:03:46;20.80;;;16.20;;
13345;SDS011;6742;48.036;15.780;2024-03-02T01:06:14;19.40;;;15.13;;
13345;SDS011;6742;48.036;15.780;2024-03-02T01:08:41;16.50;;;13.70;;
13345;SDS011;6742;48.036;15.780;2024-03-02T01:11:08;16.07;;;14.13;;
13345;SDS011;6742;48.036;15.780;2024-03-02T01:13:37;15.53;;;13.17;;
13345;SDS011;6742;48.036;15.780;2024-03-02T01:16:04;14.17;;;11.90;;
13345;SDS011;6742;48.036;15.780;2024-03-02T01:18:31;12.50;;;10.63;;
13345;SDS011;6742;48.036;15.780;2024-03-02T01:20:58;11.27;;;10.10;;
13345;SDS011;6742;48.036;15.780;2024-03-02T01:23:26;11.33;;;10.10;;
13345;SDS011;6742;48.036;15.780;2024-03-02T01:25:53;12.37;;;10.83;;
13345;SDS011;6742;48.036;15.780;2024-03-02T01:28:20;13.40;;;11.03;;
13345;SDS011;6742;48.036;15.780;2024-03-02T01:30:49;13.43;;;10.77;;
13345;SDS011;6742;48.036;15.780;2024-03-02T01:33:16;11.27;;;9.77;;
13345;SDS011;6742;48.036;15.780;2024-03-02T01:35:43;12.00;;;10.47;;
13345;SDS011;6742;48.036;15.780;2024-03-02T01:38:10;12.80;;;10.60;;
13345;SDS011;6742;48.036;15.780;2024-03-02T01:40:38;14.03;;;11.90;;
13345;SDS011;6742;48.036;15.780;2024-03-02T01:43:05;15.93;;;12.53;;
13345;SDS011;6742;48.036;15.780;2024-03-02T01:45:32;12.17;;;10.60;;
13345;SDS011;6742;48.036;15.780;2024-03-02T01:48:02;11.27;;;10.07;;
13345;SDS011;6742;48.036;15.780;2024-03-02T01:50:30;10.60;;;9.30;;
13345;SDS011;6742;48.036;15.780;2024-03-02T01:52:58;11.77;;;9.87;;
13345;SDS011;6742;48.036;15.780;2024-03-02T01:55:25;12.83;;;10.17;;
13345;SDS011;6742;48.036;15.780;2024-03-02T01:57:54;12.23;;;10.43;;
13345;SDS011;6742;48.036;15.780;2024-03-02T02:00:21;15.37;;;11.87;;
13345;SDS011;6742;48.036;15.780;2024-03-02T02:02:49;16.57;;;13.10;;
13345;SDS011;6742;48.036;15.780;2024-03-02T02:05:18;20.23;;;14.80;;
13345;SDS011;6742;48.036;15.780;2024-03-02T02:07:45;15.93;;;13.13;;
13345;SDS011;6742;48.036;15.780;2024-03-02T02:10:12;14.97;;;11.83;;
13345;SDS011;6742;48.036;15.780;2024-03-02T02:12:39;14.00;;;11.10;;
13345;SDS011;6742;48.036;15.780;2024-03-02T02:15:21;14.00;;;11.00;;
13345;SDS011;6742;48.036;15.780;2024-03-02T02:17:49;11.80;;;10.20;;
13345;SDS011;6742;48.036;15.780;2024-03-02T02:20:18;12.10;;;10.33;;
13345;SDS011;6742;48.036;15.780;2024-03-02T02:22:59;13.80;;;11.53;;
13345;SDS011;6742;48.036;15.780;2024-03-02T02:25:27;12.03;;;10.73;;
13345;SDS011;6742;48.036;15.780;2024-03-02T02:27:54;13.57;;;11.47;;
13345;SDS011;6742;48.036;15.780;2024-03-02T02:30:23;13.87;;;11.73;;
13345;SDS011;6742;48.036;15.780;2024-03-02T02:32:51;13.10;;;11.23;;
13345;SDS011;6742;48.036;15.780;2024-03-02T02:35:18;13.60;;;11.37;;
13345;SDS011;6742;48.036;15.780;2024-03-02T02:37:45;11.90;;;10.63;;
13345;SDS011;6742;48.036;15.780;2024-03-02T02:40:14;12.57;;;10.83;;
13345;SDS011;6742;48.036;15.780;2024-03-02T02:42:43;13.90;;;11.20;;
13345;SDS011;6742;48.036;15.780;2024-03-02T02:45:10;13.97;;;11.83;;
13345;SDS011;6742;48.036;15.780;2024-03-02T02:47:39;14.10;;;10.80;;
13345;SDS011;6742;48.036;15.780;2024-03-02T02:50:06;11.73;;;10.33;;
13345;SDS011;6742;48.036;15.780;2024-03-02T02:52:34;11.70;;;9.97;;
13345;SDS011;6742;48.036;15.780;2024-03-02T02:55:05;10.93;;;9.23;;
13345;SDS011;6742;48.036;15.780;2024-03-02T02:57:34;11.23;;;9.60;;
13345;SDS011;6742;48.036;15.780;2024-03-02T03:00:04;10.23;;;9.13;;
13345;SDS011;6742;48.036;15.780;2024-03-02T03:02:35;10.53;;;8.70;;
13345;SDS011;6742;48.036;15.780;2024-03-02T03:05:07;10.50;;;9.20;;
13345;SDS011;6742;48.036;15.780;2024-03-02T03:07:35;11.13;;;9.83;;
13345;SDS011;6742;48.036;15.780;2024-03-02T03:10:03;10.97;;;8.83;;
13345;SDS011;6742;48.036;15.780;2024-03-02T03:12:31;10.80;;;9.40;;
13345;SDS011;6742;48.036;15.780;2024-03-02T03:15:00;11.10;;;9.27;;
13345;SDS011;6742;48.036;15.780;2024-03-02T03:17:28;11.43;;;9.97;;
13345;SDS011;6742;48.036;15.780;2024-03-02T03:19:55;22.83;;;11.20;;
13345;SDS011;6742;48.036;15.780;2024-03-02T03:22:22;11.30;;;10.10;;
13345;SDS011;6742;48.036;15.780;2024-03-02T03:24:48;12.73;;;10.53;;
13345;SDS011;6742;48.036;15.780;2024-03-02T03:27:15;12.53;;;10.73;;
13345;SDS011;6742;48.036;15.780;2024-03-02T03:29:42;13.20;;;11.13;;
13345;SDS011;6742;48.036;15.780;2024-03-02T03:32:11;13.33;;;11.17;;
13345;SDS011;6742;48.036;15.780;2024-03-02T03:34:39;12.13;;;10.80;;
13345;SDS011;6742;48.036;15.780;2024-03-02T03:37:06;12.20;;;10.90;;
13345;SDS011;6742;48.036;15.780;2024-03-02T03:39:33;12.47;;;10.50;;
13345;SDS011;6742;48.036;15.780;2024-03-02T03:42:01;12.57;;;11.27;;
13345;SDS011;6742;48.036;15.780;2024-03-02T03:44:28;12.23;;;10.80;;
13345;SDS011;6742;48.036;15.780;2024-03-02T03:46:55;11.87;;;10.50;;
13345;SDS011;6742;48.036;15.780;2024-03-02T03:49:23;12.93;;;10.93;;
13345;SDS011;6742;48.036;15.780;2024-03-02T03:51:50;13.33;;;11.27;;
13345;SDS011;6742;48.036;15.780;2024-03-02T03:54:17;13.23;;;11.73;;
13345;SDS011;6742;48.036;15.780;2024-03-02T03:56:44;12.77;;;11.27;;
13345;SDS011;6742;48.036;15.780;2024-03-02T03:59:11;30.97;;;11.23;;
13345;SDS011;6742;48.036;15.780;2024-03-02T04:01:38;12.87;;;10.37;;
13345;SDS011;6742;48.036;15.780;2024-03-02T04:04:05;12.20;;;10.50;;
13345;SDS011;6742;48.036;15.780;2024-03-02T04:06:33;17.07;;;11.20;;
13345;SDS011;6742;48.036;15.780;2024-03-02T04:09:00;42.97;;;11.33;;
13345;SDS011;6742;48.036;15.780;2024-03-02T04:11:29;13.00;;;10.23;;
13345;SDS011;6742;48.036;15.780;2024-03-02T04:13:56;31.30;;;12.17;;
13345;SDS011;6742;48.036;15.780;2024-03-02T04:16:23;12.17;;;10.50;;
13345;SDS011;6742;48.036;15.780;2024-03-02T04:18:50;33.37;;;10.20;;
13345;SDS011;6742;48.036;15.780;2024-03-02T04:21:17;10.83;;;9.47;;
13345;SDS011;6742;48.036;15.780;2024-03-02T04:23:45;10.73;;;9.57;;
13345;SDS011;6742;48.036;15.780;2024-03-02T04:26:13;9.80;;;8.70;;
13345;SDS011;6742;48.036;15.780;2024-03-02T04:28:44;32.27;;;8.40;;
13345;SDS011;6742;48.036;15.780;2024-03-02T04:31:11;79.80;;;9.40;;
13345;SDS011;6742;48.036;15.780;2024-03-02T04:33:38;9.23;;;8.30;;
13345;SDS011;6742;48.036;15.780;2024-03-02T04:36:05;18.07;;;8.63;;
13345;SDS011;6742;48.036;15.780;2024-03-02T04:38:34;9.80;;;8.90;;
13345;SDS011;6742;48.036;15.780;2024-03-02T04:41:03;9.90;;;8.90;;
13345;SDS011;6742;48.036;15.780;2024-03-02T04:43:31;9.93;;;8.93;;
13345;SDS011;6742;48.036;15.780;2024-03-02T04:45:58;9.27;;;8.33;;
13345;SDS011;6742;48.036;15.780;2024-03-02T04:48:26;8.70;;;7.80;;
13345;SDS011;6742;48.036;15.780;2024-03-02T04:50:53;10.47;;;9.00;;
13345;SDS011;6742;48.036;15.780;2024-03-02T04:53:20;13.50;;;10.77;;
13345;SDS011;6742;48.036;15.780;2024-03-02T04:55:48;10.93;;;9.53;;
13345;SDS011;6742;48.036;15.780;2024-03-02T04:58:54;9.20;;;8.30;;
13345;SDS011;6742;48.036;15.780;2024-03-02T05:01:21;9.50;;;8.60;;
13345;SDS011;6742;48.036;15.780;2024-03-02T05:03:48;9.60;;;8.60;;
13345;SDS011;6742;48.036;15.780;2024-03-02T05:06:15;8.83;;;7.47;;
13345;SDS011;6742;48.036;15.780;2024-03-02T05:08:42;9.33;;;8.37;;
13345;SDS011;6742;48.036;15.780;2024-03-02T05:11:10;9.20;;;7.50;;
13345;SDS011;6742;48.036;15.780;2024-03-02T05:14:15;11.80;;;10.60;;
13345;SDS011;6742;48.036;15.780;2024-03-02T05:16:42;10.63;;;9.30;;
13345;SDS011;6742;48.036;15.780;2024-03-02T05:19:08;12.37;;;9.17;;
13345;SDS011;6742;48.036;15.780;2024-03-02T05:21:35;9.80;;;8.80;;
13345;SDS011;6742;48.036;15.780;2024-03-02T05:24:02;9.43;;;7.83;;
13345;SDS011;6742;48.036;15.780;2024-03-02T05:26:29;9.00;;;8.10;;
13345;SDS011;6742;48.036;15.780;2024-03-02T05:28:56;9.97;;;8.67;;
13345;SDS011;6742;48.036;15.780;2024-03-02T05:31:27;17.93;;;9.20;;
13345;SDS011;6742;48.036;15.780;2024-03-02T05:33:54;9.37;;;8.37;;
13345;SDS011;6742;48.036;15.780;2024-03-02T05:36:21;9.70;;;8.50;;
13345;SDS011;6742;48.036;15.780;2024-03-02T05:38:48;10.23;;;9.23;;
13345;SDS011;6742;48.036;15.780;2024-03-02T05:41:15;10.23;;;9.20;;
13345;SDS011;6742;48.036;15.780;2024-03-02T05:43:42;15.57;;;8.00;;
13345;SDS011;6742;48.036;15.780;2024-03-02T05:46:09;17.17;;;7.20;;
13345;SDS011;6742;48.036;15.780;2024-03-02T05:48:38;8.90;;;8.10;;
13345;SDS011;6742;48.036;15.780;2024-03-02T05:51:05;7.70;;;6.80;;
13345;SDS011;6742;48.036;15.780;2024-03-02T05:53:32;8.00;;;7.20;;
13345;SDS011;6742;48.036;15.780;2024-03-02T05:55:59;7.53;;;6.83;;
13345;SDS011;6742;48.036;15.780;2024-03-02T05:58:26;6.97;;;6.37;;
13345;SDS011;6742;48.036;15.780;2024-03-02T06:01:03;9.50;;;8.50;;
13345;SDS011;6742;48.036;15.780;2024-03-02T06:03:30;12.30;;;10.93;;
13345;SDS011;6742;48.036;15.780;2024-03-02T06:05:59;8.83;;;8.03;;
13345;SDS011;6742;48.036;15.780;2024-03-02T06:08:26;7.30;;;6.60;;
13345;SDS011;6742;48.036;15.780;2024-03-02T06:10:53;12.63;;;9.40;;
13345;SDS011;6742;48.036;15.780;2024-03-02T06:13:21;9.23;;;7.27;;
13345;SDS011;6742;48.036;15.780;2024-03-02T06:15:48;8.03;;;7.23;;
13345;SDS011;6742;48.036;15.780;2024-03-02T06:18:15;7.33;;;6.63;;
13345;SDS011;6742;48.036;15.780;2024-03-02T06:20:42;6.97;;;6.27;;
13345;SDS011;6742;48.036;15.780;2024-03-02T06:23:10;6.80;;;6.20;;
13345;SDS011;6742;48.036;15.780;2024-03-02T06:25:37;6.83;;;6.13;;
13345;SDS011;6742;48.036;15.780;2024-03-02T06:28:04;6.00;;;5.47;;
13345;SDS011;6742;48.036;15.780;2024-03-02T06:30:32;5.30;;;4.80;;
13345;SDS011;6742;48.036;15.780;2024-03-02T06:32:59;5.83;;;5.33;;
13345;SDS011;6742;48.036;15.780;2024-03-02T06:35:26;7.30;;;6.60;;
13345;SDS011;6742;48.036;15.780;2024-03-02T06:37:53;14.93;;;12.00;;
13345;SDS011;6742;48.036;15.780;2024-03-02T06:40:21;9.97;;;8.73;;
13345;SDS011;6742;48.036;15.780;2024-03-02T06:42:48;5.83;;;5.33;;
13345;SDS011;6742;48.036;15.780;2024-03-02T06:45:15;6.37;;;5.77;;
13345;SDS011;6742;48.036;15.780;2024-03-02T06:47:42;5.80;;;5.20;;
13345;SDS011;6742;48.036;15.780;2024-03-02T06:50:09;5.70;;;5.10;;
13345;SDS011;6742;48.036;15.780;2024-03-02T06:52:36;7.17;;;5.53;;
13345;SDS011;6742;48.036;15.780;2024-03-02T06:55:04;8.00;;;7.20;;
13345;SDS011;6742;48.036;15.780;2024-03-02T06:57:33;9.20;;;7.10;;
13345;SDS011;6742;48.036;15.780;2024-03-02T06:59:59;9.00;;;8.10;;
13345;SDS011;6742;48.036;15.780;2024-03-02T07:02:30;5.83;;;5.33;;
13345;SDS011;6742;48.036;15.780;2024-03-02T07:04:57;5.10;;;4.70;;
13345;SDS011;6742;48.036;15.780;2024-03-02T07:07:24;5.88;;;4.63;;
13345;SDS011;6742;48.036;15.780;2024-03-02T07:09:51;5.00;;;4.60;;
13345;SDS011;6742;48.036;15.780;2024-03-02T07:12:18;5.53;;;4.87;;
13345;SDS011;6742;48.036;15.780;2024-03-02T07:14:46;4.63;;;4.22;;
13345;SDS011;6742;48.036;15.780;2024-03-02T07:17:30;4.93;;;4.43;;
13345;SDS011;6742;48.036;15.780;2024-03-02T07:19:58;4.93;;;4.53;;
13345;SDS011;6742;48.036;15.780;2024-03-02T07:22:25;5.07;;;4.68;;
13345;SDS011;6742;48.036;15.780;2024-03-02T07:24:52;5.10;;;4.70;;
13345;SDS011;6742;48.036;15.780;2024-03-02T07:27:18;5.65;;;4.25;;
13345;SDS011;6742;48.036;15.780;2024-03-02T07:29:47;7.50;;;5.32;;
13345;SDS011;6742;48.036;15.780;2024-03-02T07:32:14;7.03;;;6.20;;
13345;SDS011;6742;48.036;15.780;2024-03-02T07:34:41;6.13;;;4.93;;
13345;SDS011;6742;48.036;15.780;2024-03-02T07:37:08;5.03;;;4.05;;
13345;SDS011;6742;48.036;15.780;2024-03-02T07:39:35;3.95;;;3.53;;
13345;SDS011;6742;48.036;15.780;2024-03-02T07:42:02;4.20;;;3.80;;
13345;SDS011;6742;48.036;15.780;2024-03-02T07:44:29;3.70;;;3.30;;
13345;SDS011;6742;48.036;15.780;2024-03-02T07:46:57;3.08;;;2.75;;
13345;SDS011;6742;48.036;15.780;2024-03-02T07:49:24;3.88;;;3.20;;
13345;SDS011;6742;48.036;15.780;2024-03-02T07:51:51;3.30;;;2.90;;
13345;SDS011;6742;48.036;15.780;2024-03-02T07:54:18;3.15;;;2.90;;
13345;SDS011;6742;48.036;15.780;2024-03-02T07:56:45;3.30;;;3.00;;
13345;SDS011;6742;48.036;15.780;2024-03-02T07:59:12;3.38;;;3.03;;
13345;SDS011;6742;48.036;15.780;2024-03-02T08:01:39;3.10;;;2.80;;
13345;SDS011;6742;48.036;15.780;2024-03-02T08:04:08;3.22;;;2.92;;
13345;SDS011;6742;48.036;15.780;2024-03-02T08:06:35;3.08;;;2.75;;
13345;SDS011;6742;48.036;15.780;2024-03-02T08:09:02;4.05;;;3.05;;
13345;SDS011;6742;48.036;15.780;2024-03-02T08:11:34;3.28;;;2.97;;
13345;SDS011;6742;48.036;15.780;2024-03-02T08:14:01;4.32;;;2.88;;
13345;SDS011;6742;48.036;15.780;2024-03-02T08:16:27;5.50;;;3.05;;
13345;SDS011;6742;48.036;15.780;2024-03-02T08:18:54;3.28;;;2.97;;
13345;SDS011;6742;48.036;15.780;2024-03-02T08:21:24;2.92;;;2.60;;
13345;SDS011;6742;48.036;15.780;2024-03-02T08:23:51;3.38;;;2.72;;
13345;SDS011;6742;48.036;15.780;2024-03-02T08:26:18;3.22;;;2.78;;
13345;SDS011;6742;48.036;15.780;2024-03-02T08:28:45;2.67;;;2.45;;
13345;SDS011;6742;48.036;15.780;2024-03-02T08:31:12;3.85;;;2.58;;
13345;SDS011;6742;48.036;15.780;2024-03-02T08:33:39;3.85;;;2.58;;
13345;SDS011;6742;48.036;15.780;2024-03-02T08:36:07;3.10;;;2.67;;
13345;SDS011;6742;48.036;15.780;2024-03-02T08:38:36;2.88;;;2.58;;
13345;SDS011;6742;48.036;15.780;2024-03-02T08:41:04;3.30;;;3.00;;
13345;SDS011;6742;48.036;15.780;2024-03-02T08:43:31;3.78;;;3.10;;
13345;SDS011;6742;48.036;15.780;2024-03-02T08:45:58;3.97;;;3.47;;
13345;SDS011;6742;48.036;15.780;2024-03-02T08:48:25;4.32;;;3.30;;
13345;SDS011;6742;48.036;15.780;2024-03-02T08:50:52;4.53;;;3.80;;
13345;SDS011;6742;48.036;15.780;2024-03-02T08:53:19;4.03;;;3.63;;
13345;SDS011;6742;48.036;15.780;2024-03-02T08:55:47;4.40;;;4.00;;
13345;SDS011;6742;48.036;15.780;2024-03-02T08:58:14;4.22;;;3.85;;
13345;SDS011;6742;48.036;15.780;2024-03-02T09:00:41;5.03;;;4.18;;
13345;SDS011;6742;48.036;15.780;2024-03-02T09:03:08;4.40;;;4.00;;
13345;SDS011;6742;48.036;15.780;2024-03-02T09:05:36;5.35;;;4.25;;
13345;SDS011;6742;48.036;15.780;2024-03-02T09:08:03;4.50;;;4.10;;
13345;SDS011;6742;48.036;15.780;2024-03-02T09:10:30;4.55;;;4.15;;
13345;SDS011;6742;48.036;15.780;2024-03-02T09:12:59;5.43;;;4.47;;
13345;SDS011;6742;48.036;15.780;2024-03-02T09:15:26;5.22;;;4.55;;
13345;SDS011;6742;48.036;15.780;2024-03-02T09:17:53;5.30;;;4.43;;
13345;SDS011;6742;48.036;15.780;2024-03-02T09:20:20;5.45;;;4.57;;
13345;SDS011;6742;48.036;15.780;2024-03-02T09:22:48;6.82;;;5.05;;
13345;SDS011;6742;48.036;15.780;2024-03-02T09:25:17;4.90;;;4.40;;
13345;SDS011;6742;48.036;15.780;2024-03-02T09:27:44;5.40;;;4.22;;
13345;SDS011;6742;48.036;15.780;2024-03-02T09:30:13;4.38;;;3.95;;
13345;SDS011;6742;48.036;15.780;2024-03-02T09:32:40;4.95;;;4.45;;
13345;SDS011;6742;48.036;15.780;2024-03-02T09:35:07;5.60;;;4.53;;
13345;SDS011;6742;48.036;15.780;2024-03-02T09:37:35;5.28;;;4.22;;
13345;SDS011;6742;48.036;15.780;2024-03-02T09:40:02;5.13;;;4.60;;
13345;SDS011;6742;48.036;15.780;2024-03-02T09:42:29;4.95;;;4.15;;
13345;SDS011;6742;48.036;15.780;2024-03-02T09:44:57;4.97;;;3.92;;
13345;SDS011;6742;48.036;15.780;2024-03-02T09:47:25;5.95;;;4.35;;
13345;SDS011;6742;48.036;15.780;2024-03-02T09:49:52;6.43;;;5.00;;
13345;SDS011;6742;48.036;15.780;2024-03-02T09:52:20;6.03;;;4.97;;
13345;SDS011;6742;48.036;15.780;2024-03-02T09:54:48;6.93;;;5.03;;
13345;SDS011;6742;48.036;15.780;2024-03-02T09:57:15;5.65;;;4.50;;
13345;SDS011;6742;48.036;15.780;2024-03-02T09:59:43;4.97;;;4.47;;
13345;SDS011;6742;48.036;15.780;2024-03-02T10:02:10;5.50;;;4.97;;
13345;SDS011;6742;48.036;15.780;2024-03-02T10:04:39;7.43;;;5.85;;
13345;SDS011;6742;48.036;15.780;2024-03-02T10:07:09;8.63;;;6.60;;
13345;SDS011;6742;48.036;15.780;2024-03-02T10:09:37;8.68;;;6.40;;
13345;SDS011;6742;48.036;15.780;2024-03-02T10:12:05;8.73;;;6.20;;
13345;SDS011;6742;48.036;15.780;2024-03-02T10:14:33;5.88;;;5.28;;
13345;SDS011;6742;48.036;15.780;2024-03-02T10:17:03;6.38;;;5.30;;
13345;SDS011;6742;48.036;15.780;2024-03-02T10:19:31;6.15;;;4.93;;
13345;SDS011;6742;48.036;15.780;2024-03-02T10:22:01;5.35;;;4.85;;
13345;SDS011;6742;48.036;15.780;2024-03-02T10:24:34;5.15;;;4.50;;
13345;SDS011;6742;48.036;15.780;2024-03-02T10:27:06;5.20;;;4.45;;
13345;SDS011;6742;48.036;15.780;2024-03-02T10:29:36;5.32;;;4.50;;
13345;SDS011;6742;48.036;15.780;2024-03-02T10:32:05;4.63;;;4.22;;
13345;SDS011;6742;48.036;15.780;2024-03-02T10:34:34;6.32;;;4.45;;
13345;SDS011;6742;48.036;15.780;2024-03-02T10:37:03;5.75;;;4.82;;
13345;SDS011;6742;48.036;15.780;2024-03-02T10:39:32;5.60;;;4.40;;
13345;SDS011;6742;48.036;15.780;2024-03-02T10:42:03;5.25;;;4.75;;
13345;SDS011;6742;48.036;15.780;2024-03-02T10:44:31;5.38;;;4.80;;
13345;SDS011;6742;48.036;15.780;2024-03-02T10:47:00;7.28;;;5.13;;
13345;SDS011;6742;48.036;15.780;2024-03-02T10:49:29;6.22;;;4.70;;
13345;SDS011;6742;48.036;15.780;2024-03-02T10:51:56;5.35;;;4.60;;
13345;SDS011;6742;48.036;15.780;2024-03-02T10:54:24;5.78;;;4.10;;
13345;SDS011;6742;48.036;15.780;2024-03-02T10:56:54;5.15;;;4.28;;
13345;SDS011;6742;48.036;15.780;2024-03-02T10:59:26;5.13;;;4.50;;
13345;SDS011;6742;48.036;15.780;2024-03-02T11:01:56;5.18;;;4.68;;
13345;SDS011;6742;48.036;15.780;2024-03-02T11:04:25;6.28;;;4.25;;
13345;SDS011;6742;48.036;15.780;2024-03-02T11:06:54;5.78;;;4.60;;
13345;SDS011;6742;48.036;15.780;2024-03-02T11:09:27;5.13;;;4.32;;
13345;SDS011;6742;48.036;15.780;2024-03-02T11:11:58;5.45;;;4.80;;
13345;SDS011;6742;48.036;15.780;2024-03-02T11:14:30;5.30;;;4.75;;
13345;SDS011;6742;48.036;15.780;2024-03-02T11:16:58;5.10;;;4.57;;
13345;SDS011;6742;48.036;15.780;2024-03-02T11:19:28;7.68;;;4.97;;
13345;SDS011;6742;48.036;15.780;2024-03-02T11:21:56;5.53;;;4.85;;
13345;SDS011;6742;48.036;15.780;2024-03-02T11:24:34;6.80;;;5.40;;
13345;SDS011;6742;48.036;15.780;2024-03-02T11:27:02;8.23;;;6.25;;
13345;SDS011;6742;48.036;15.780;2024-03-02T11:32:18;7.45;;;5.15;;
13345;SDS011;6742;48.036;15.780;2024-03-02T11:34:48;6.78;;;4.85;;
13345;SDS011;6742;48.036;15.780;2024-03-02T11:37:16;6.63;;;5.38;;
13345;SDS011;6742;48.036;15.780;2024-03-02T11:39:47;5.93;;;4.93;;
13345;SDS011;6742;48.036;15.780;2024-03-02T11:42:16;6.63;;;5.20;;
13345;SDS011;6742;48.036;15.780;2024-03-02T11:44:44;6.28;;;4.95;;
13345;SDS011;6742;48.036;15.780;2024-03-02T11:47:13;7.63;;;4.63;;
13345;SDS011;6742;48.036;15.780;2024-03-02T11:49:41;6.55;;;5.00;;
13345;SDS011;6742;48.036;15.780;2024-03-02T11:52:10;5.35;;;4.80;;
13345;SDS011;6742;48.036;15.780;2024-03-02T11:54:38;7.38;;;6.57;;
13345;SDS011;6742;48.036;15.780;2024-03-02T11:57:13;12.82;;;11.18;;
13345;SDS011;6742;48.036;15.780;2024-03-02T11:59:41;12.85;;;10.27;;
13345;SDS011;6742;48.036;15.780;2024-03-02T12:02:12;12.27;;;10.52;;
13345;SDS011;6742;48.036;15.780;2024-03-02T12:04:41;13.00;;;11.55;;
13345;SDS011;6742;48.036;15.780;2024-03-02T12:07:10;12.85;;;11.55;;
13345;SDS011;6742;48.036;15.780;2024-03-02T12:09:37;14.38;;;11.50;;
13345;SDS011;6742;48.036;15.780;2024-03-02T12:12:05;15.38;;;12.00;;
13345;SDS011;6742;48.036;15.780;2024-03-02T12:14:34;16.45;;;12.65;;
13345;SDS011;6742;48.036;15.780;2024-03-02T12:17:02;14.38;;;12.52;;
13345;SDS011;6742;48.036;15.780;2024-03-02T12:19:30;14.68;;;12.80;;
13345;SDS011;6742;48.036;15.780;2024-03-02T12:21:57;15.77;;;12.00;;
13345;SDS011;6742;48.036;15.780;2024-03-02T12:24:26;14.68;;;11.93;;
13345;SDS011;6742;48.036;15.780;2024-03-02T12:26:54;13.88;;;12.38;;
13345;SDS011;6742;48.036;15.780;2024-03-02T12:29:21;16.92;;;13.60;;
13345;SDS011;6742;48.036;15.780;2024-03-02T12:31:51;16.38;;;14.23;;
13345;SDS011;6742;48.036;15.780;2024-03-02T12:34:18;16.48;;;14.15;;
13345;SDS011;6742;48.036;15.780;2024-03-02T12:36:46;16.63;;;14.50;;
13345;SDS011;6742;48.036;15.780;2024-03-02T12:39:15;15.73;;;13.65;;
13345;SDS011;6742;48.036;15.780;2024-03-02T12:41:43;15.50;;;13.15;;
13345;SDS011;6742;48.036;15.780;2024-03-02T12:44:10;16.30;;;13.77;;
13345;SDS011;6742;48.036;15.780;2024-03-02T12:46:37;16.90;;;14.43;;
13345;SDS011;6742;48.036;15.780;2024-03-02T12:49:09;14.00;;;12.57;;
13345;SDS011;6742;48.036;15.780;2024-03-02T12:51:37;11.63;;;10.43;;
13345;SDS011;6742;48.036;15.780;2024-03-02T12:54:06;12.60;;;11.30;;
13345;SDS011;6742;48.036;15.780;2024-03-02T12:56:33;12.07;;;10.77;;
13345;SDS011;6742;48.036;15.780;2024-03-02T12:59:01;14.27;;;11.82;;
13345;SDS011;6742;48.036;15.780;2024-03-02T13:01:28;13.75;;;11.85;;
13345;SDS011;6742;48.036;15.780;2024-03-02T13:03:56;15.45;;;12.18;;
13345;SDS011;6742;48.036;15.780;2024-03-02T13:06:25;14.23;;;12.65;;
13345;SDS011;6742;48.036;15.780;2024-03-02T13:08:54;14.93;;;13.18;;
13345;SDS011;6742;48.036;15.780;2024-03-02T13:11:21;15.15;;;13.50;;
13345;SDS011;6742;48.036;15.780;2024-03-02T13:13:49;16.05;;;13.73;;
13345;SDS011;6742;48.036;15.780;2024-03-02T13:16:17;14.60;;;13.07;;
13345;SDS011;6742;48.036;15.780;2024-03-02T13:18:45;18.65;;;15.15;;
13345;SDS011;6742;48.036;15.780;2024-03-02T13:21:12;16.52;;;14.73;;
13345;SDS011;6742;48.036;15.780;2024-03-02T13:23:40;17.33;;;15.27;;
13345;SDS011;6742;48.036;15.780;2024-03-02T13:26:07;18.67;;;15.07;;
13345;SDS011;6742;48.036;15.780;2024-03-02T13:28:36;18.02;;;15.35;;
13345;SDS011;6742;48.036;15.780;2024-03-02T13:31:04;18.35;;;16.20;;
13345;SDS011;6742;48.036;15.780;2024-03-02T13:33:31;19.08;;;16.08;;
13345;SDS011;6742;48.036;15.780;2024-03-02T13:35:58;21.08;;;18.02;;
13345;SDS011;6742;48.036;15.780;2024-03-02T13:38:26;19.67;;;16.83;;
13345;SDS011;6742;48.036;15.780;2024-03-02T13:40:55;21.30;;;16.88;;
13345;SDS011;6742;48.036;15.780;2024-03-02T13:43:22;20.55;;;16.83;;
13345;SDS011;6742;48.036;15.780;2024-03-02T13:45:49;19.08;;;17.00;;
13345;SDS011;6742;48.036;15.780;2024-03-02T13:48:17;20.90;;;16.60;;
13345;SDS011;6742;48.036;15.780;2024-03-02T13:50:44;21.15;;;17.85;;
13345;SDS011;6742;48.036;15.780;2024-03-02T13:53:11;19.65;;;17.08;;
13345;SDS011;6742;48.036;15.780;2024-03-02T13:55:38;20.42;;;17.40;;
13345;SDS011;6742;48.036;15.780;2024-03-02T13:58:08;22.17;;;18.63;;
13345;SDS011;6742;48.036;15.780;2024-03-02T14:00:36;21.67;;;17.05;;
13345;SDS011;6742;48.036;15.780;2024-03-02T14:03:03;20.42;;;17.52;;
13345;SDS011;6742;48.036;15.780;2024-03-02T14:05:32;22.75;;;17.25;;
13345;SDS011;6742;48.036;15.780;2024-03-02T14:07:59;24.42;;;18.50;;
13345;SDS011;6742;48.036;15.780;2024-03-02T14:10:26;22.38;;;18.70;;
13345;SDS011;6742;48.036;15.780;2024-03-02T14:12:54;24.95;;;18.98;;
13345;SDS011;6742;48.036;15.780;2024-03-02T14:15:22;22.88;;;18.05;;
13345;SDS011;6742;48.036;15.780;2024-03-02T14:17:50;23.17;;;18.70;;
13345;SDS011;6742;48.036;15.780;2024-03-02T14:20:17;25.20;;;19.23;;
13345;SDS011;6742;48.036;15.780;2024-03-02T14:22:47;25.00;;;19.55;;
13345;SDS011;6742;48.036;15.780;2024-03-02T14:25:14;25.40;;;19.92;;
13345;SDS011;6742;48.036;15.780;2024-03-02T14:27:42;25.92;;;20.02;;
13345;SDS011;6742;48.036;15.780;2024-03-02T14:30:10;25.10;;;19.83;;
13345;SDS011;6742;48.036;15.780;2024-03-02T14:32:39;25.38;;;19.67;;
13345;SDS011;6742;48.036;15.780;2024-03-02T14:35:06;26.75;;;20.38;;
13345;SDS011;6742;48.036;15.780;2024-03-02T14:37:36;26.23;;;20.83;;
13345;SDS011;6742;48.036;15.780;2024-03-02T14:40:04;26.45;;;20.25;;
13345;SDS011;6742;48.036;15.780;2024-03-02T14:42:34;27.75;;;21.42;;